sensor_id;sensor_type;location;lat;lon;timestamp;pressure;altitude;pressure_sealevel;temperature;humidity
8101;BME280;4093;53.470;9.832;2023-01-27T00:01:01;102301.41;;;6.72;92.91
8101;BME280;4093;53.470;9.832;2023-01-27T00:03:29;102299.09;;;6.48;93.10
8101;BME280;4093;53.470;9.832;2023-01-27T00:05:57;102307.13;;;6.99;92.87
8101;BME280;4093;53.470;9.832;2023-01-27T00:08:27;102242.16;;;5.97;93.60
8101;BME280;4093;53.470;9.832;2023-01-27T00:10:56;102301.66;;;6.48;94.39
8101;BME280;4093;53.470;9.832;2023-01-27T00:13:38;102306.28;;;6.27;95.41
8101;BME280;4093;53.470;9.832;2023-01-27T00:16:07;102312.63;;;6.76;94.04
8101;BME280;4093;53.470;9.832;2023-01-27T00:18:35;102299.38;;;6.61;92.31
8101;BME280;4093;53.470;9.832;2023-01-27T00:21:02;102308.84;;;7.37;90.68
8101;BME280;4093;53.470;9.832;2023-01-27T00:23:48;102298.75;;;6.33;93.15
8101;BME280;4093;53.470;9.832;2023-01-27T00:26:33;102306.25;;;6.97;91.39
8101;BME280;4093;53.470;9.832;2023-01-27T00:29:01;102299.69;;;6.38;93.41
8101;BME280;4093;53.470;9.832;2023-01-27T00:31:30;102311.13;;;6.86;93.27
8101;BME280;4093;53.470;9.832;2023-01-27T00:34:15;102312.31;;;6.64;92.64
8101;BME280;4093;53.470;9.832;2023-01-27T00:36:43;102320.94;;;7.02;91.84
8101;BME280;4093;53.470;9.832;2023-01-27T00:39:11;102321.09;;;6.72;92.82
8101;BME280;4093;53.470;9.832;2023-01-27T00:41:39;102326.59;;;6.87;93.03
8101;BME280;4093;53.470;9.832;2023-01-27T00:44:07;102321.16;;;7.11;91.74
8101;BME280;4093;53.470;9.832;2023-01-27T00:46:40;102326.75;;;6.95;92.81
8101;BME280;4093;53.470;9.832;2023-01-27T00:49:08;102320.56;;;6.51;93.62
8101;BME280;4093;53.470;9.832;2023-01-27T00:51:38;102335.69;;;7.09;93.59
8101;BME280;4093;53.470;9.832;2023-01-27T00:54:06;102338.94;;;7.40;90.76
8101;BME280;4093;53.470;9.832;2023-01-27T00:56:34;102290.59;;;6.51;93.95
8101;BME280;4093;53.470;9.832;2023-01-27T00:59:02;102336.59;;;6.42;95.52
8101;BME280;4093;53.470;9.832;2023-01-27T01:01:30;102337.28;;;6.35;95.96
8101;BME280;4093;53.470;9.832;2023-01-27T01:04:00;102344.03;;;7.01;93.70
8101;BME280;4093;53.470;9.832;2023-01-27T01:06:29;102356.31;;;7.12;94.16
8101;BME280;4093;53.470;9.832;2023-01-27T01:08:56;102236.19;;;5.98;94.54
8101;BME280;4093;53.470;9.832;2023-01-27T01:11:25;102237.13;;;6.01;95.08
8101;BME280;4093;53.470;9.832;2023-01-27T01:13:53;102341.50;;;6.66;95.44
8101;BME280;4093;53.470;9.832;2023-01-27T01:16:23;102345.09;;;6.72;95.29
8101;BME280;4093;53.470;9.832;2023-01-27T01:18:51;102337.00;;;6.57;94.09
8101;BME280;4093;53.470;9.832;2023-01-27T01:21:20;102346.78;;;6.72;94.76
8101;BME280;4093;53.470;9.832;2023-01-27T01:23:48;102354.97;;;6.57;96.14
8101;BME280;4093;53.470;9.832;2023-01-27T01:26:16;102349.13;;;6.61;95.36
8101;BME280;4093;53.470;9.832;2023-01-27T01:28:44;102350.31;;;6.76;95.54
8101;BME280;4093;53.470;9.832;2023-01-27T01:31:14;102353.66;;;6.71;94.58
8101;BME280;4093;53.470;9.832;2023-01-27T01:33:42;102347.34;;;6.60;95.52
8101;BME280;4093;53.470;9.832;2023-01-27T01:36:12;102352.88;;;6.76;94.91
8101;BME280;4093;53.470;9.832;2023-01-27T01:38:41;102354.38;;;7.02;94.39
8101;BME280;4093;53.470;9.832;2023-01-27T01:41:12;102353.88;;;6.82;95.33
8101;BME280;4093;53.470;9.832;2023-01-27T01:43:40;102351.38;;;6.84;93.90
8101;BME280;4093;53.470;9.832;2023-01-27T01:46:09;102357.81;;;6.33;97.82
8101;BME280;4093;53.470;9.832;2023-01-27T01:48:39;102357.56;;;6.57;95.90
8101;BME280;4093;53.470;9.832;2023-01-27T01:51:11;102362.94;;;6.66;95.34
8101;BME280;4093;53.470;9.832;2023-01-27T01:53:46;102374.06;;;7.39;93.25
8101;BME280;4093;53.470;9.832;2023-01-27T01:56:22;102357.25;;;6.45;96.40
8101;BME280;4093;53.470;9.832;2023-01-27T01:58:52;102367.88;;;6.93;94.09
8101;BME280;4093;53.470;9.832;2023-01-27T02:01:21;102372.34;;;7.38;93.03
8101;BME280;4093;53.470;9.832;2023-01-27T02:03:52;102371.56;;;6.35;97.69
8101;BME280;4093;53.470;9.832;2023-01-27T02:06:24;102367.44;;;6.42;97.78
8101;BME280;4093;53.470;9.832;2023-01-27T02:08:54;102368.53;;;6.52;96.74
8101;BME280;4093;53.470;9.832;2023-01-27T02:11:22;102376.22;;;6.83;95.78
8101;BME280;4093;53.470;9.832;2023-01-27T02:13:49;102372.72;;;6.48;97.89
8101;BME280;4093;53.470;9.832;2023-01-27T02:16:18;102379.78;;;6.55;98.47
8101;BME280;4093;53.470;9.832;2023-01-27T02:18:45;102374.03;;;6.32;98.15
8101;BME280;4093;53.470;9.832;2023-01-27T02:21:13;102389.25;;;6.58;98.81
8101;BME280;4093;53.470;9.832;2023-01-27T02:23:47;102386.28;;;6.74;97.46
8101;BME280;4093;53.470;9.832;2023-01-27T02:26:20;102384.34;;;6.67;98.24
8101;BME280;4093;53.470;9.832;2023-01-27T02:28:53;102375.81;;;6.33;97.53
8101;BME280;4093;53.470;9.832;2023-01-27T02:31:23;102398.03;;;6.66;99.55
8101;BME280;4093;53.470;9.832;2023-01-27T02:33:53;102388.84;;;6.42;100.00
8101;BME280;4093;53.470;9.832;2023-01-27T02:36:24;102403.22;;;6.34;100.00
8101;BME280;4093;53.470;9.832;2023-01-27T02:38:55;102403.28;;;6.70;99.81
8101;BME280;4093;53.470;9.832;2023-01-27T02:41:29;102379.56;;;6.46;99.98
8101;BME280;4093;53.470;9.832;2023-01-27T02:43:59;102388.50;;;5.97;100.00
8101;BME280;4093;53.470;9.832;2023-01-27T02:46:26;102412.28;;;6.53;100.00
8101;BME280;4093;53.470;9.832;2023-01-27T02:48:54;102412.28;;;6.53;100.00
8101;BME280;4093;53.470;9.832;2023-01-27T02:51:22;102410.91;;;6.66;99.01
8101;BME280;4093;53.470;9.832;2023-01-27T02:53:50;102412.84;;;6.75;99.13
8101;BME280;4093;53.470;9.832;2023-01-27T02:56:18;102411.44;;;6.87;98.61
8101;BME280;4093;53.470;9.832;2023-01-27T02:58:47;102405.00;;;6.05;100.00
8101;BME280;4093;53.470;9.832;2023-01-27T03:01:15;102394.56;;;6.00;100.00
8101;BME280;4093;53.470;9.832;2023-01-27T03:03:43;102419.94;;;6.52;100.00
8101;BME280;4093;53.470;9.832;2023-01-27T03:06:13;102411.72;;;6.01;100.00
8101;BME280;4093;53.470;9.832;2023-01-27T03:08:41;102419.56;;;6.38;100.00
8101;BME280;4093;53.470;9.832;2023-01-27T03:11:10;102419.38;;;6.63;97.91
8101;BME280;4093;53.470;9.832;2023-01-27T03:13:39;102421.00;;;6.58;98.29
8101;BME280;4093;53.470;9.832;2023-01-27T03:16:10;102432.84;;;6.86;97.89
8101;BME280;4093;53.470;9.832;2023-01-27T03:18:55;102427.84;;;6.59;98.33
8101;BME280;4093;53.470;9.832;2023-01-27T03:21:23;102438.47;;;6.71;98.14
8101;BME280;4093;53.470;9.832;2023-01-27T03:23:51;102440.66;;;6.91;97.23
8101;BME280;4093;53.470;9.832;2023-01-27T03:26:22;102421.31;;;6.39;98.80
8101;BME280;4093;53.470;9.832;2023-01-27T03:28:51;102437.09;;;6.53;99.57
8101;BME280;4093;53.470;9.832;2023-01-27T03:31:34;102432.22;;;6.30;99.37
8101;BME280;4093;53.470;9.832;2023-01-27T03:34:02;102443.50;;;6.05;100.00
8101;BME280;4093;53.470;9.832;2023-01-27T03:36:30;102444.88;;;5.94;100.00
8101;BME280;4093;53.470;9.832;2023-01-27T03:39:15;102437.47;;;6.05;100.00
8101;BME280;4093;53.470;9.832;2023-01-27T03:42:00;102444.00;;;6.23;100.00
8101;BME280;4093;53.470;9.832;2023-01-27T03:44:45;102451.91;;;6.61;98.51
8101;BME280;4093;53.470;9.832;2023-01-27T03:47:32;102452.63;;;6.25;99.93
8101;BME280;4093;53.470;9.832;2023-01-27T03:50:00;102474.88;;;6.88;99.03
8101;BME280;4093;53.470;9.832;2023-01-27T03:52:27;102468.56;;;7.10;97.30
8101;BME280;4093;53.470;9.832;2023-01-27T03:54:55;102461.69;;;6.13;98.26
8101;BME280;4093;53.470;9.832;2023-01-27T03:57:23;102467.31;;;6.01;100.00
8101;BME280;4093;53.470;9.832;2023-01-27T03:59:50;102468.41;;;5.80;100.00
8101;BME280;4093;53.470;9.832;2023-01-27T04:02:18;102471.47;;;5.96;100.00
8101;BME280;4093;53.470;9.832;2023-01-27T04:05:05;102477.63;;;6.31;100.00
8101;BME280;4093;53.470;9.832;2023-01-27T04:07:51;102478.78;;;6.42;99.95
8101;BME280;4093;53.470;9.832;2023-01-27T04:10:20;102476.75;;;6.94;97.18
8101;BME280;4093;53.470;9.832;2023-01-27T04:12:48;102461.47;;;6.67;96.97
8101;BME280;4093;53.470;9.832;2023-01-27T04:15:15;102474.69;;;6.49;98.37
8101;BME280;4093;53.470;9.832;2023-01-27T04:17:43;102469.47;;;6.16;99.75
8101;BME280;4093;53.470;9.832;2023-01-27T04:20:13;102478.97;;;6.80;97.94
8101;BME280;4093;53.470;9.832;2023-01-27T04:22:40;102477.25;;;6.17;100.00
8101;BME280;4093;53.470;9.832;2023-01-27T04:25:08;102476.44;;;6.50;98.34
8101;BME280;4093;53.470;9.832;2023-01-27T04:27:38;102478.03;;;6.78;95.98
8101;BME280;4093;53.470;9.832;2023-01-27T04:30:08;102475.44;;;6.45;97.30
8101;BME280;4093;53.470;9.832;2023-01-27T04:32:36;102479.00;;;6.20;100.00
8101;BME280;4093;53.470;9.832;2023-01-27T04:35:05;102476.59;;;5.96;100.00
8101;BME280;4093;53.470;9.832;2023-01-27T04:37:39;102483.53;;;6.29;99.33
8101;BME280;4093;53.470;9.832;2023-01-27T04:40:08;102481.94;;;6.02;99.74
8101;BME280;4093;53.470;9.832;2023-01-27T04:42:36;102480.13;;;5.72;99.64
8101;BME280;4093;53.470;9.832;2023-01-27T04:45:05;102494.56;;;6.24;99.19
8101;BME280;4093;53.470;9.832;2023-01-27T04:47:33;102386.53;;;5.32;98.56
8101;BME280;4093;53.470;9.832;2023-01-27T04:50:00;102494.78;;;5.76;100.00
8101;BME280;4093;53.470;9.832;2023-01-27T04:52:28;102494.63;;;5.70;100.00
8101;BME280;4093;53.470;9.832;2023-01-27T04:54:57;102505.53;;;6.20;98.73
8101;BME280;4093;53.470;9.832;2023-01-27T04:57:25;102503.78;;;5.91;99.86
8101;BME280;4093;53.470;9.832;2023-01-27T04:59:53;102501.78;;;5.80;99.10
8101;BME280;4093;53.470;9.832;2023-01-27T05:02:20;102498.59;;;6.16;97.92
8101;BME280;4093;53.470;9.832;2023-01-27T05:04:48;102511.03;;;6.33;97.38
8101;BME280;4093;53.470;9.832;2023-01-27T05:07:16;102508.84;;;6.77;95.30
8101;BME280;4093;53.470;9.832;2023-01-27T05:09:43;102503.31;;;6.31;97.30
8101;BME280;4093;53.470;9.832;2023-01-27T05:12:12;102507.03;;;6.42;96.63
8101;BME280;4093;53.470;9.832;2023-01-27T05:14:40;102513.22;;;6.19;96.17
8101;BME280;4093;53.470;9.832;2023-01-27T05:17:08;102513.59;;;6.31;95.38
8101;BME280;4093;53.470;9.832;2023-01-27T05:19:35;102526.38;;;6.30;96.76
8101;BME280;4093;53.470;9.832;2023-01-27T05:22:03;102525.22;;;6.20;97.21
8101;BME280;4093;53.470;9.832;2023-01-27T05:24:31;102519.25;;;5.92;97.82
8101;BME280;4093;53.470;9.832;2023-01-27T05:26:59;102528.34;;;5.83;97.93
8101;BME280;4093;53.470;9.832;2023-01-27T05:29:28;102519.06;;;5.59;98.92
8101;BME280;4093;53.470;9.832;2023-01-27T05:31:55;102529.19;;;6.09;97.26
8101;BME280;4093;53.470;9.832;2023-01-27T05:34:23;102522.53;;;6.45;95.04
8101;BME280;4093;53.470;9.832;2023-01-27T05:36:51;102526.84;;;6.16;96.11
8101;BME280;4093;53.470;9.832;2023-01-27T05:39:18;102514.19;;;5.41;98.79
8101;BME280;4093;53.470;9.832;2023-01-27T05:41:46;102523.13;;;5.79;97.65
8101;BME280;4093;53.470;9.832;2023-01-27T05:44:14;102517.94;;;5.51;99.38
8101;BME280;4093;53.470;9.832;2023-01-27T05:46:43;102532.72;;;6.12;97.05
8101;BME280;4093;53.470;9.832;2023-01-27T05:49:11;102526.81;;;6.15;95.90
8101;BME280;4093;53.470;9.832;2023-01-27T05:51:39;102508.13;;;6.51;94.60
8101;BME280;4093;53.470;9.832;2023-01-27T05:54:07;102521.66;;;6.45;93.79
8101;BME280;4093;53.470;9.832;2023-01-27T05:56:37;102521.81;;;5.65;97.96
8101;BME280;4093;53.470;9.832;2023-01-27T05:59:06;102512.94;;;5.83;96.44
8101;BME280;4093;53.470;9.832;2023-01-27T06:01:34;102507.13;;;5.34;99.36
8101;BME280;4093;53.470;9.832;2023-01-27T06:04:04;102527.16;;;6.27;96.74
8101;BME280;4093;53.470;9.832;2023-01-27T06:06:32;102529.84;;;6.30;94.56
8101;BME280;4093;53.470;9.832;2023-01-27T06:09:00;102531.88;;;6.13;96.26
8101;BME280;4093;53.470;9.832;2023-01-27T06:11:28;102529.03;;;5.77;95.82
8101;BME280;4093;53.470;9.832;2023-01-27T06:13:56;102531.81;;;5.05;96.30
8101;BME280;4093;53.470;9.832;2023-01-27T06:16:24;102542.69;;;5.49;96.51
8101;BME280;4093;53.470;9.832;2023-01-27T06:18:51;102549.75;;;5.56;95.76
8101;BME280;4093;53.470;9.832;2023-01-27T06:21:23;102550.38;;;5.76;95.65
8101;BME280;4093;53.470;9.832;2023-01-27T06:23:52;102541.72;;;5.72;94.50
8101;BME280;4093;53.470;9.832;2023-01-27T06:26:19;102545.47;;;5.55;95.05
8101;BME280;4093;53.470;9.832;2023-01-27T06:28:48;102548.78;;;5.79;96.01
8101;BME280;4093;53.470;9.832;2023-01-27T06:31:18;102562.63;;;5.85;94.76
8101;BME280;4093;53.470;9.832;2023-01-27T06:33:48;102560.13;;;5.08;96.12
8101;BME280;4093;53.470;9.832;2023-01-27T06:36:17;102575.31;;;5.53;94.83
8101;BME280;4093;53.470;9.832;2023-01-27T06:38:47;102575.88;;;5.44;95.00
8101;BME280;4093;53.470;9.832;2023-01-27T06:41:15;102572.66;;;5.24;94.71
8101;BME280;4093;53.470;9.832;2023-01-27T06:43:43;102588.75;;;5.46;94.98
8101;BME280;4093;53.470;9.832;2023-01-27T06:46:10;102588.56;;;5.40;94.09
8101;BME280;4093;53.470;9.832;2023-01-27T06:48:38;102592.66;;;5.87;92.65
8101;BME280;4093;53.470;9.832;2023-01-27T06:51:06;102602.03;;;6.39;89.73
8101;BME280;4093;53.470;9.832;2023-01-27T06:53:34;102597.66;;;5.83;92.61
8101;BME280;4093;53.470;9.832;2023-01-27T06:56:07;102590.69;;;5.53;93.44
8101;BME280;4093;53.470;9.832;2023-01-27T06:58:34;102599.19;;;6.03;92.53
8101;BME280;4093;53.470;9.832;2023-01-27T07:01:03;102602.94;;;5.87;91.84
8101;BME280;4093;53.470;9.832;2023-01-27T07:03:31;102602.34;;;5.43;94.19
8101;BME280;4093;53.470;9.832;2023-01-27T07:05:58;102613.53;;;5.45;95.90
8101;BME280;4093;53.470;9.832;2023-01-27T07:08:25;102614.50;;;5.23;95.57
8101;BME280;4093;53.470;9.832;2023-01-27T07:10:53;102623.75;;;5.44;95.90
8101;BME280;4093;53.470;9.832;2023-01-27T07:13:23;102616.81;;;5.41;95.12
8101;BME280;4093;53.470;9.832;2023-01-27T07:15:53;102621.22;;;4.96;97.06
8101;BME280;4093;53.470;9.832;2023-01-27T07:18:22;102628.72;;;5.39;96.36
8101;BME280;4093;53.470;9.832;2023-01-27T07:20:49;102637.13;;;5.11;97.34
8101;BME280;4093;53.470;9.832;2023-01-27T07:23:18;102644.75;;;5.33;96.31
8101;BME280;4093;53.470;9.832;2023-01-27T07:25:46;102638.09;;;4.91;97.53
8101;BME280;4093;53.470;9.832;2023-01-27T07:28:14;102651.72;;;5.14;98.09
8101;BME280;4093;53.470;9.832;2023-01-27T07:30:43;102652.28;;;5.29;96.11
8101;BME280;4093;53.470;9.832;2023-01-27T07:33:11;102652.78;;;5.68;95.61
8101;BME280;4093;53.470;9.832;2023-01-27T07:35:40;102649.59;;;5.75;92.62
8101;BME280;4093;53.470;9.832;2023-01-27T07:38:08;102638.53;;;5.03;96.47
8101;BME280;4093;53.470;9.832;2023-01-27T07:40:36;102671.75;;;5.73;94.81
8101;BME280;4093;53.470;9.832;2023-01-27T07:43:04;102663.19;;;5.47;95.23
8101;BME280;4093;53.470;9.832;2023-01-27T07:45:32;102659.53;;;5.41;94.35
8101;BME280;4093;53.470;9.832;2023-01-27T07:48:01;102667.78;;;5.08;94.94
8101;BME280;4093;53.470;9.832;2023-01-27T07:50:29;102622.09;;;5.20;94.88
8101;BME280;4093;53.470;9.832;2023-01-27T07:52:58;102673.09;;;5.37;95.31
8101;BME280;4093;53.470;9.832;2023-01-27T07:55:26;102660.47;;;5.19;95.42
8101;BME280;4093;53.470;9.832;2023-01-27T07:57:54;102663.56;;;5.10;94.84
8101;BME280;4093;53.470;9.832;2023-01-27T08:00:22;102676.50;;;5.61;94.44
8101;BME280;4093;53.470;9.832;2023-01-27T08:02:50;102678.25;;;5.38;96.85
8101;BME280;4093;53.470;9.832;2023-01-27T08:05:20;102658.72;;;5.42;94.10
8101;BME280;4093;53.470;9.832;2023-01-27T08:07:48;102670.84;;;5.46;94.30
8101;BME280;4093;53.470;9.832;2023-01-27T08:10:17;102672.25;;;5.14;95.56
8101;BME280;4093;53.470;9.832;2023-01-27T08:12:45;102665.81;;;5.49;95.27
8101;BME280;4093;53.470;9.832;2023-01-27T08:15:13;102669.81;;;5.41;94.27
8101;BME280;4093;53.470;9.832;2023-01-27T08:17:52;102677.09;;;5.79;93.85
8101;BME280;4093;53.470;9.832;2023-01-27T08:20:21;102670.34;;;5.82;91.75
8101;BME280;4093;53.470;9.832;2023-01-27T08:22:49;102680.81;;;5.62;94.22
8101;BME280;4093;53.470;9.832;2023-01-27T08:25:19;102689.06;;;6.03;92.89
8101;BME280;4093;53.470;9.832;2023-01-27T08:27:48;102688.44;;;6.37;90.91
8101;BME280;4093;53.470;9.832;2023-01-27T08:30:17;102672.31;;;6.14;90.20
8101;BME280;4093;53.470;9.832;2023-01-27T08:32:46;102679.09;;;6.39;90.57
8101;BME280;4093;53.470;9.832;2023-01-27T08:35:14;102677.53;;;5.92;91.55
8101;BME280;4093;53.470;9.832;2023-01-27T08:37:44;102661.72;;;5.79;90.86
8101;BME280;4093;53.470;9.832;2023-01-27T08:40:14;102686.41;;;6.00;92.54
8101;BME280;4093;53.470;9.832;2023-01-27T08:42:42;102692.13;;;6.18;91.60
8101;BME280;4093;53.470;9.832;2023-01-27T08:45:10;102681.97;;;5.70;92.86
8101;BME280;4093;53.470;9.832;2023-01-27T08:47:38;102693.53;;;5.85;93.24
8101;BME280;4093;53.470;9.832;2023-01-27T08:50:07;102673.75;;;5.80;91.88
8101;BME280;4093;53.470;9.832;2023-01-27T08:52:36;102668.75;;;5.85;92.44
8101;BME280;4093;53.470;9.832;2023-01-27T08:55:06;102687.66;;;5.38;93.40
8101;BME280;4093;53.470;9.832;2023-01-27T08:57:33;102697.09;;;5.88;92.29
8101;BME280;4093;53.470;9.832;2023-01-27T09:00:03;102700.84;;;5.24;95.33
8101;BME280;4093;53.470;9.832;2023-01-27T09:02:31;102709.69;;;5.08;97.21
8101;BME280;4093;53.470;9.832;2023-01-27T09:05:00;102704.56;;;5.56;96.37
8101;BME280;4093;53.470;9.832;2023-01-27T09:07:28;102711.16;;;5.02;97.65
8101;BME280;4093;53.470;9.832;2023-01-27T09:09:56;102720.75;;;4.85;98.88
8101;BME280;4093;53.470;9.832;2023-01-27T09:12:45;102721.66;;;5.09;98.59
8101;BME280;4093;53.470;9.832;2023-01-27T09:15:13;102717.09;;;5.73;95.73
8101;BME280;4093;53.470;9.832;2023-01-27T09:17:41;102726.78;;;5.56;96.28
8101;BME280;4093;53.470;9.832;2023-01-27T09:20:10;102722.22;;;5.73;94.55
8101;BME280;4093;53.470;9.832;2023-01-27T09:22:38;102724.97;;;5.77;96.47
8101;BME280;4093;53.470;9.832;2023-01-27T09:25:07;102733.69;;;6.07;96.00
8101;BME280;4093;53.470;9.832;2023-01-27T09:27:35;102728.34;;;6.53;92.67
8101;BME280;4093;53.470;9.832;2023-01-27T09:30:09;102725.75;;;5.99;95.00
8101;BME280;4093;53.470;9.832;2023-01-27T09:32:38;102737.53;;;6.19;93.78
8101;BME280;4093;53.470;9.832;2023-01-27T09:35:07;102744.31;;;6.43;93.49
8101;BME280;4093;53.470;9.832;2023-01-27T09:37:37;102733.63;;;5.55;95.83
8101;BME280;4093;53.470;9.832;2023-01-27T09:40:13;102740.69;;;5.87;96.32
8101;BME280;4093;53.470;9.832;2023-01-27T09:42:50;102738.56;;;5.75;95.17
8101;BME280;4093;53.470;9.832;2023-01-27T09:45:38;102738.06;;;6.09;95.16
8101;BME280;4093;53.470;9.832;2023-01-27T09:48:25;102729.13;;;5.74;94.30
8101;BME280;4093;53.470;9.832;2023-01-27T09:51:00;102726.06;;;5.60;94.55
8101;BME280;4093;53.470;9.832;2023-01-27T09:56:40;102746.47;;;5.10;98.07
8101;BME280;4093;53.470;9.832;2023-01-27T09:59:24;102740.47;;;5.32;96.51
8101;BME280;4093;53.470;9.832;2023-01-27T10:02:04;102741.19;;;5.52;96.05
8101;BME280;4093;53.470;9.832;2023-01-27T10:04:58;102745.94;;;5.66;96.45
8101;BME280;4093;53.470;9.832;2023-01-27T10:07:45;102749.75;;;6.01;94.30
8101;BME280;4093;53.470;9.832;2023-01-27T10:10:25;102739.31;;;5.48;96.67
8101;BME280;4093;53.470;9.832;2023-01-27T10:13:17;102735.78;;;5.21;97.16
8101;BME280;4093;53.470;9.832;2023-01-27T10:16:05;102734.00;;;5.20;98.77
8101;BME280;4093;53.470;9.832;2023-01-27T10:18:53;102739.03;;;5.17;98.06
8101;BME280;4093;53.470;9.832;2023-01-27T10:21:30;102734.59;;;5.59;96.57
8101;BME280;4093;53.470;9.832;2023-01-27T10:24:09;102737.19;;;6.36;93.62
8101;BME280;4093;53.470;9.832;2023-01-27T10:26:48;102722.03;;;5.43;94.61
8101;BME280;4093;53.470;9.832;2023-01-27T10:29:20;102729.16;;;5.75;93.95
8101;BME280;4093;53.470;9.832;2023-01-27T10:31:55;102726.78;;;5.80;94.04
8101;BME280;4093;53.470;9.832;2023-01-27T10:34:30;102717.06;;;5.23;93.25
8101;BME280;4093;53.470;9.832;2023-01-27T10:37:10;102725.53;;;4.98;94.85
8101;BME280;4093;53.470;9.832;2023-01-27T10:39:48;102727.22;;;5.20;93.88
8101;BME280;4093;53.470;9.832;2023-01-27T10:42:24;102724.16;;;5.54;91.94
8101;BME280;4093;53.470;9.832;2023-01-27T10:45:09;102724.91;;;6.00;92.46
8101;BME280;4093;53.470;9.832;2023-01-27T10:47:53;102726.72;;;5.78;90.39
8101;BME280;4093;53.470;9.832;2023-01-27T10:50:28;102703.41;;;5.72;89.17
8101;BME280;4093;53.470;9.832;2023-01-27T10:53:00;102713.09;;;5.55;89.90
8101;BME280;4093;53.470;9.832;2023-01-27T10:55:36;102681.25;;;6.00;88.36
8101;BME280;4093;53.470;9.832;2023-01-27T10:58:13;102704.63;;;5.34;89.51
8101;BME280;4093;53.470;9.832;2023-01-27T11:00:44;102711.50;;;5.59;89.08
8101;BME280;4093;53.470;9.832;2023-01-27T11:03:35;102718.16;;;6.29;88.67
8101;BME280;4093;53.470;9.832;2023-01-27T11:06:12;102711.59;;;6.39;86.37
8101;BME280;4093;53.470;9.832;2023-01-27T11:08:44;102699.50;;;5.34;87.13
8101;BME280;4093;53.470;9.832;2023-01-27T11:11:13;102717.88;;;6.47;86.07
8101;BME280;4093;53.470;9.832;2023-01-27T11:14:02;102709.22;;;6.45;86.43
8101;BME280;4093;53.470;9.832;2023-01-27T11:16:37;102697.63;;;5.79;86.13
8101;BME280;4093;53.470;9.832;2023-01-27T11:19:15;102705.75;;;6.43;86.33
8101;BME280;4093;53.470;9.832;2023-01-27T11:21:48;102697.44;;;5.73;85.23
8101;BME280;4093;53.470;9.832;2023-01-27T11:24:41;102710.47;;;5.79;87.47
8101;BME280;4093;53.470;9.832;2023-01-27T11:27:18;102719.38;;;5.89;88.00
8101;BME280;4093;53.470;9.832;2023-01-27T11:29:53;102717.84;;;6.20;86.12
8101;BME280;4093;53.470;9.832;2023-01-27T11:32:32;102710.84;;;5.65;87.11
8101;BME280;4093;53.470;9.832;2023-01-27T11:35:04;102713.44;;;5.18;87.89
8101;BME280;4093;53.470;9.832;2023-01-27T11:37:36;102713.38;;;5.17;86.81
8101;BME280;4093;53.470;9.832;2023-01-27T11:40:14;102709.91;;;5.63;86.68
8101;BME280;4093;53.470;9.832;2023-01-27T11:42:43;102677.06;;;5.28;85.41
8101;BME280;4093;53.470;9.832;2023-01-27T11:45:16;102698.34;;;5.74;83.81
8101;BME280;4093;53.470;9.832;2023-01-27T11:47:48;102701.75;;;5.26;85.91
8101;BME280;4093;53.470;9.832;2023-01-27T11:50:18;102705.31;;;5.54;85.37
8101;BME280;4093;53.470;9.832;2023-01-27T11:52:51;102705.75;;;5.18;86.53
8101;BME280;4093;53.470;9.832;2023-01-27T11:55:23;102694.59;;;5.64;84.79
8101;BME280;4093;53.470;9.832;2023-01-27T11:57:57;102696.19;;;6.39;82.78
8101;BME280;4093;53.470;9.832;2023-01-27T12:00:36;102698.59;;;6.07;83.00
8101;BME280;4093;53.470;9.832;2023-01-27T12:03:13;102686.19;;;5.94;83.08
8101;BME280;4093;53.470;9.832;2023-01-27T12:05:48;102690.09;;;6.08;84.12
8101;BME280;4093;53.470;9.832;2023-01-27T12:08:39;102694.16;;;6.84;82.68
8101;BME280;4093;53.470;9.832;2023-01-27T12:11:30;102692.09;;;6.72;82.35
8101;BME280;4093;53.470;9.832;2023-01-27T12:13:59;102685.41;;;7.08;80.77
8101;BME280;4093;53.470;9.832;2023-01-27T12:16:41;102684.25;;;5.88;84.15
8101;BME280;4093;53.470;9.832;2023-01-27T12:19:20;102692.44;;;5.28;85.00
8101;BME280;4093;53.470;9.832;2023-01-27T12:21:51;102691.06;;;5.62;83.42
8101;BME280;4093;53.470;9.832;2023-01-27T12:24:26;102699.19;;;5.26;85.17
8101;BME280;4093;53.470;9.832;2023-01-27T12:26:55;102690.25;;;5.63;83.49
8101;BME280;4093;53.470;9.832;2023-01-27T12:29:27;102693.44;;;5.56;84.54
8101;BME280;4093;53.470;9.832;2023-01-27T12:31:57;102682.91;;;5.24;83.89
8101;BME280;4093;53.470;9.832;2023-01-27T12:34:29;102690.34;;;5.66;83.21
8101;BME280;4093;53.470;9.832;2023-01-27T12:36:58;102690.72;;;6.28;82.45
8101;BME280;4093;53.470;9.832;2023-01-27T12:39:39;102687.44;;;6.05;82.61
8101;BME280;4093;53.470;9.832;2023-01-27T12:42:33;102685.63;;;5.53;82.89
8101;BME280;4093;53.470;9.832;2023-01-27T12:45:24;102680.78;;;6.12;81.93
8101;BME280;4093;53.470;9.832;2023-01-27T12:47:57;102683.91;;;5.77;81.93
8101;BME280;4093;53.470;9.832;2023-01-27T12:50:27;102688.50;;;5.38;83.46
8101;BME280;4093;53.470;9.832;2023-01-27T12:53:08;102690.63;;;5.74;82.58
8101;BME280;4093;53.470;9.832;2023-01-27T12:55:41;102689.22;;;5.58;82.43
8101;BME280;4093;53.470;9.832;2023-01-27T12:58:29;102686.13;;;5.43;81.70
8101;BME280;4093;53.470;9.832;2023-01-27T13:00:59;102687.53;;;5.34;82.76
8101;BME280;4093;53.470;9.832;2023-01-27T13:03:28;102681.47;;;5.32;82.52
8101;BME280;4093;53.470;9.832;2023-01-27T13:05:58;102692.97;;;5.42;82.59
8101;BME280;4093;53.470;9.832;2023-01-27T13:08:27;102688.50;;;5.88;81.00
8101;BME280;4093;53.470;9.832;2023-01-27T13:11:01;102685.13;;;5.15;81.94
8101;BME280;4093;53.470;9.832;2023-01-27T13:13:30;102682.25;;;5.79;81.66
8101;BME280;4093;53.470;9.832;2023-01-27T13:16:03;102685.50;;;6.25;79.18
8101;BME280;4093;53.470;9.832;2023-01-27T13:18:33;102684.56;;;6.50;78.83
8101;BME280;4093;53.470;9.832;2023-01-27T13:21:11;102673.25;;;6.45;77.89
8101;BME280;4093;53.470;9.832;2023-01-27T13:23:42;102668.81;;;5.61;80.56
8101;BME280;4093;53.470;9.832;2023-01-27T13:26:15;102667.00;;;5.59;82.28
8101;BME280;4093;53.470;9.832;2023-01-27T13:28:48;102672.66;;;6.52;79.13
8101;BME280;4093;53.470;9.832;2023-01-27T13:31:32;102670.34;;;6.07;79.91
8101;BME280;4093;53.470;9.832;2023-01-27T13:34:04;102658.38;;;6.33;78.65
8101;BME280;4093;53.470;9.832;2023-01-27T13:36:40;102678.38;;;5.17;80.46
8101;BME280;4093;53.470;9.832;2023-01-27T13:39:16;102663.41;;;5.29;79.92
8101;BME280;4093;53.470;9.832;2023-01-27T13:41:50;102666.59;;;5.22;80.52
8101;BME280;4093;53.470;9.832;2023-01-27T13:44:25;102666.47;;;5.19;79.32
8101;BME280;4093;53.470;9.832;2023-01-27T13:47:00;102681.34;;;6.03;78.31
8101;BME280;4093;53.470;9.832;2023-01-27T13:49:33;102675.31;;;6.28;77.26